sensor_id;sensor_type;location;lat;lon;timestamp;P1;durP1;ratioP1;P2;durP2;ratioP2
38581;SDS011;24349;53.720;10.014;2022-08-24T00:02:23;4.05;;;2.00;;
38581;SDS011;24349;53.720;10.014;2022-08-24T00:04:50;6.18;;;2.42;;
38581;SDS011;24349;53.720;10.014;2022-08-24T00:07:16;4.35;;;1.95;;
38581;SDS011;24349;53.720;10.014;2022-08-24T00:09:43;5.10;;;1.95;;
38581;SDS011;24349;53.720;10.014;2022-08-24T00:12:10;5.68;;;2.15;;
38581;SDS011;24349;53.720;10.014;2022-08-24T00:14:37;3.90;;;1.90;;
38581;SDS011;24349;53.720;10.014;2022-08-24T00:17:04;6.47;;;2.15;;
38581;SDS011;24349;53.720;10.014;2022-08-24T00:19:30;6.47;;;2.15;;
38581;SDS011;24349;53.720;10.014;2022-08-24T00:21:56;4.13;;;2.08;;
38581;SDS011;24349;53.720;10.014;2022-08-24T00:24:21;5.95;;;2.10;;
38581;SDS011;24349;53.720;10.014;2022-08-24T00:26:47;5.25;;;2.17;;
38581;SDS011;24349;53.720;10.014;2022-08-24T00:29:14;6.15;;;2.10;;
38581;SDS011;24349;53.720;10.014;2022-08-24T00:31:41;5.90;;;2.00;;
38581;SDS011;24349;53.720;10.014;2022-08-24T00:34:07;4.70;;;1.90;;
38581;SDS011;24349;53.720;10.014;2022-08-24T00:36:33;4.60;;;1.98;;
38581;SDS011;24349;53.720;10.014;2022-08-24T00:38:59;4.63;;;2.10;;
38581;SDS011;24349;53.720;10.014;2022-08-24T00:41:25;5.82;;;2.00;;
38581;SDS011;24349;53.720;10.014;2022-08-24T00:43:56;4.55;;;2.00;;
38581;SDS011;24349;53.720;10.014;2022-08-24T00:46:26;5.03;;;2.13;;
38581;SDS011;24349;53.720;10.014;2022-08-24T00:49:04;5.85;;;2.35;;
38581;SDS011;24349;53.720;10.014;2022-08-24T00:51:35;7.53;;;2.60;;
38581;SDS011;24349;53.720;10.014;2022-08-24T00:54:06;5.68;;;2.00;;
38581;SDS011;24349;53.720;10.014;2022-08-24T00:56:40;6.95;;;2.20;;
38581;SDS011;24349;53.720;10.014;2022-08-24T00:59:11;8.55;;;2.17;;
38581;SDS011;24349;53.720;10.014;2022-08-24T01:01:42;6.78;;;2.17;;
38581;SDS011;24349;53.720;10.014;2022-08-24T01:04:09;5.55;;;2.15;;
38581;SDS011;24349;53.720;10.014;2022-08-24T01:06:39;3.85;;;1.90;;
38581;SDS011;24349;53.720;10.014;2022-08-24T01:09:05;5.82;;;2.20;;
38581;SDS011;24349;53.720;10.014;2022-08-24T01:11:31;6.75;;;1.83;;
38581;SDS011;24349;53.720;10.014;2022-08-24T01:13:58;4.82;;;2.05;;
38581;SDS011;24349;53.720;10.014;2022-08-24T01:16:26;5.55;;;2.03;;
38581;SDS011;24349;53.720;10.014;2022-08-24T01:19:45;4.18;;;1.95;;
38581;SDS011;24349;53.720;10.014;2022-08-24T01:24:50;4.85;;;2.47;;
38581;SDS011;24349;53.720;10.014;2022-08-24T01:27:16;5.28;;;2.28;;
38581;SDS011;24349;53.720;10.014;2022-08-24T01:29:43;5.13;;;1.90;;
38581;SDS011;24349;53.720;10.014;2022-08-24T01:32:10;5.72;;;2.15;;
38581;SDS011;24349;53.720;10.014;2022-08-24T01:34:36;5.05;;;2.00;;
38581;SDS011;24349;53.720;10.014;2022-08-24T01:37:02;5.97;;;2.15;;
38581;SDS011;24349;53.720;10.014;2022-08-24T01:39:36;5.85;;;1.85;;
38581;SDS011;24349;53.720;10.014;2022-08-24T01:44:31;6.82;;;2.20;;
38581;SDS011;24349;53.720;10.014;2022-08-24T01:46:58;5.88;;;2.20;;
38581;SDS011;24349;53.720;10.014;2022-08-24T01:49:27;6.25;;;2.20;;
38581;SDS011;24349;53.720;10.014;2022-08-24T01:51:54;4.43;;;2.03;;
38581;SDS011;24349;53.720;10.014;2022-08-24T01:54:20;7.32;;;2.60;;
38581;SDS011;24349;53.720;10.014;2022-08-24T01:56:46;6.25;;;2.25;;
38581;SDS011;24349;53.720;10.014;2022-08-24T01:59:12;6.20;;;2.10;;
38581;SDS011;24349;53.720;10.014;2022-08-24T02:01:42;5.53;;;2.35;;
38581;SDS011;24349;53.720;10.014;2022-08-24T02:04:12;6.50;;;2.42;;
38581;SDS011;24349;53.720;10.014;2022-08-24T02:06:39;6.25;;;2.05;;
38581;SDS011;24349;53.720;10.014;2022-08-24T02:09:05;6.75;;;2.30;;
38581;SDS011;24349;53.720;10.014;2022-08-24T02:11:31;9.70;;;2.83;;
38581;SDS011;24349;53.720;10.014;2022-08-24T02:13:58;5.65;;;2.38;;
38581;SDS011;24349;53.720;10.014;2022-08-24T02:16:24;6.50;;;2.20;;
38581;SDS011;24349;53.720;10.014;2022-08-24T02:18:50;7.20;;;2.63;;
38581;SDS011;24349;53.720;10.014;2022-08-24T02:21:16;7.35;;;2.95;;
38581;SDS011;24349;53.720;10.014;2022-08-24T02:23:42;5.35;;;2.40;;
38581;SDS011;24349;53.720;10.014;2022-08-24T02:26:09;7.47;;;2.40;;
38581;SDS011;24349;53.720;10.014;2022-08-24T02:28:35;6.63;;;2.63;;
38581;SDS011;24349;53.720;10.014;2022-08-24T02:31:02;5.85;;;2.60;;
38581;SDS011;24349;53.720;10.014;2022-08-24T02:33:30;6.63;;;2.53;;
38581;SDS011;24349;53.720;10.014;2022-08-24T02:35:56;5.15;;;2.50;;
38581;SDS011;24349;53.720;10.014;2022-08-24T02:38:22;6.70;;;2.50;;
38581;SDS011;24349;53.720;10.014;2022-08-24T02:40:48;6.43;;;2.40;;
38581;SDS011;24349;53.720;10.014;2022-08-24T02:43:13;8.85;;;2.70;;
38581;SDS011;24349;53.720;10.014;2022-08-24T02:45:40;5.72;;;2.70;;
38581;SDS011;24349;53.720;10.014;2022-08-24T02:48:09;5.85;;;2.88;;
38581;SDS011;24349;53.720;10.014;2022-08-24T02:50:39;7.70;;;2.53;;
38581;SDS011;24349;53.720;10.014;2022-08-24T02:53:06;4.28;;;2.10;;
38581;SDS011;24349;53.720;10.014;2022-08-24T02:55:33;6.95;;;2.67;;
38581;SDS011;24349;53.720;10.014;2022-08-24T02:57:58;7.03;;;2.83;;
38581;SDS011;24349;53.720;10.014;2022-08-24T03:00:24;6.60;;;2.63;;
38581;SDS011;24349;53.720;10.014;2022-08-24T03:02:52;5.47;;;2.50;;
38581;SDS011;24349;53.720;10.014;2022-08-24T03:05:18;5.60;;;2.60;;
38581;SDS011;24349;53.720;10.014;2022-08-24T03:07:44;7.90;;;3.13;;
38581;SDS011;24349;53.720;10.014;2022-08-24T03:10:10;7.25;;;2.63;;
38581;SDS011;24349;53.720;10.014;2022-08-24T03:12:36;5.70;;;2.45;;
38581;SDS011;24349;53.720;10.014;2022-08-24T03:15:03;5.82;;;2.42;;
38581;SDS011;24349;53.720;10.014;2022-08-24T03:17:32;7.10;;;2.33;;
38581;SDS011;24349;53.720;10.014;2022-08-24T03:19:59;6.47;;;2.60;;
38581;SDS011;24349;53.720;10.014;2022-08-24T03:22:26;5.53;;;2.63;;
38581;SDS011;24349;53.720;10.014;2022-08-24T03:24:51;5.93;;;2.47;;
38581;SDS011;24349;53.720;10.014;2022-08-24T03:27:17;5.75;;;2.70;;
38581;SDS011;24349;53.720;10.014;2022-08-24T03:29:43;6.28;;;2.30;;
38581;SDS011;24349;53.720;10.014;2022-08-24T03:32:09;4.93;;;2.33;;
38581;SDS011;24349;53.720;10.014;2022-08-24T03:34:35;6.10;;;2.30;;
38581;SDS011;24349;53.720;10.014;2022-08-24T03:37:02;4.60;;;2.10;;
38581;SDS011;24349;53.720;10.014;2022-08-24T03:39:28;6.45;;;2.83;;
38581;SDS011;24349;53.720;10.014;2022-08-24T03:41:54;5.88;;;2.40;;
38581;SDS011;24349;53.720;10.014;2022-08-24T03:44:19;5.75;;;2.70;;
38581;SDS011;24349;53.720;10.014;2022-08-24T03:46:45;7.00;;;2.47;;
38581;SDS011;24349;53.720;10.014;2022-08-24T03:49:11;5.38;;;2.25;;
38581;SDS011;24349;53.720;10.014;2022-08-24T03:51:38;5.13;;;2.33;;
38581;SDS011;24349;53.720;10.014;2022-08-24T03:54:05;4.85;;;2.60;;
38581;SDS011;24349;53.720;10.014;2022-08-24T03:56:32;6.30;;;2.83;;
38581;SDS011;24349;53.720;10.014;2022-08-24T03:58:59;5.90;;;2.90;;
38581;SDS011;24349;53.720;10.014;2022-08-24T04:01:25;5.85;;;2.65;;
38581;SDS011;24349;53.720;10.014;2022-08-24T04:03:51;5.50;;;2.78;;
38581;SDS011;24349;53.720;10.014;2022-08-24T04:06:19;7.40;;;2.90;;
38581;SDS011;24349;53.720;10.014;2022-08-24T04:08:47;6.60;;;2.70;;
38581;SDS011;24349;53.720;10.014;2022-08-24T04:11:14;7.32;;;2.97;;
38581;SDS011;24349;53.720;10.014;2022-08-24T04:13:42;6.78;;;2.85;;
38581;SDS011;24349;53.720;10.014;2022-08-24T04:16:10;6.20;;;2.80;;
38581;SDS011;24349;53.720;10.014;2022-08-24T04:18:38;5.80;;;3.15;;
38581;SDS011;24349;53.720;10.014;2022-08-24T04:21:04;8.30;;;2.95;;
38581;SDS011;24349;53.720;10.014;2022-08-24T04:23:31;7.40;;;3.00;;
38581;SDS011;24349;53.720;10.014;2022-08-24T04:26:01;6.75;;;3.35;;
38581;SDS011;24349;53.720;10.014;2022-08-24T04:28:28;7.13;;;3.30;;
38581;SDS011;24349;53.720;10.014;2022-08-24T04:30:55;7.78;;;3.35;;
38581;SDS011;24349;53.720;10.014;2022-08-24T04:33:21;7.82;;;3.33;;
38581;SDS011;24349;53.720;10.014;2022-08-24T04:35:47;5.10;;;2.85;;
38581;SDS011;24349;53.720;10.014;2022-08-24T04:38:17;6.72;;;3.20;;
38581;SDS011;24349;53.720;10.014;2022-08-24T04:40:44;7.45;;;3.28;;
38581;SDS011;24349;53.720;10.014;2022-08-24T04:43:10;6.45;;;3.00;;
38581;SDS011;24349;53.720;10.014;2022-08-24T04:45:42;6.10;;;2.88;;
38581;SDS011;24349;53.720;10.014;2022-08-24T04:48:10;7.00;;;2.90;;
38581;SDS011;24349;53.720;10.014;2022-08-24T04:50:37;7.13;;;3.00;;
38581;SDS011;24349;53.720;10.014;2022-08-24T04:53:04;7.57;;;3.30;;
38581;SDS011;24349;53.720;10.014;2022-08-24T04:55:32;8.60;;;3.55;;
38581;SDS011;24349;53.720;10.014;2022-08-24T04:58:05;8.27;;;3.25;;
38581;SDS011;24349;53.720;10.014;2022-08-24T05:00:31;5.68;;;3.10;;
38581;SDS011;24349;53.720;10.014;2022-08-24T05:02:57;6.07;;;2.92;;
38581;SDS011;24349;53.720;10.014;2022-08-24T05:05:23;7.28;;;3.13;;
38581;SDS011;24349;53.720;10.014;2022-08-24T05:07:48;5.82;;;3.20;;
38581;SDS011;24349;53.720;10.014;2022-08-24T05:10:14;6.05;;;3.28;;
38581;SDS011;24349;53.720;10.014;2022-08-24T05:12:40;7.80;;;3.70;;
38581;SDS011;24349;53.720;10.014;2022-08-24T05:15:06;6.75;;;2.85;;
38581;SDS011;24349;53.720;10.014;2022-08-24T05:17:32;7.78;;;3.00;;
38581;SDS011;24349;53.720;10.014;2022-08-24T05:19:58;8.27;;;3.10;;
38581;SDS011;24349;53.720;10.014;2022-08-24T05:22:24;5.57;;;2.88;;
38581;SDS011;24349;53.720;10.014;2022-08-24T05:24:50;6.80;;;3.03;;
38581;SDS011;24349;53.720;10.014;2022-08-24T05:27:16;9.38;;;3.50;;
38581;SDS011;24349;53.720;10.014;2022-08-24T05:29:42;8.27;;;3.03;;
38581;SDS011;24349;53.720;10.014;2022-08-24T05:32:11;6.28;;;3.03;;
38581;SDS011;24349;53.720;10.014;2022-08-24T05:34:37;7.35;;;3.38;;
38581;SDS011;24349;53.720;10.014;2022-08-24T05:37:02;8.27;;;3.90;;
38581;SDS011;24349;53.720;10.014;2022-08-24T05:39:28;7.47;;;3.22;;
38581;SDS011;24349;53.720;10.014;2022-08-24T05:41:55;5.85;;;3.00;;
38581;SDS011;24349;53.720;10.014;2022-08-24T05:44:23;8.13;;;2.80;;
38581;SDS011;24349;53.720;10.014;2022-08-24T05:46:50;6.07;;;2.95;;
38581;SDS011;24349;53.720;10.014;2022-08-24T05:49:16;7.10;;;3.05;;
38581;SDS011;24349;53.720;10.014;2022-08-24T05:51:42;5.95;;;2.85;;
38581;SDS011;24349;53.720;10.014;2022-08-24T05:54:08;7.43;;;2.85;;
38581;SDS011;24349;53.720;10.014;2022-08-24T05:56:35;5.63;;;2.78;;
38581;SDS011;24349;53.720;10.014;2022-08-24T05:59:01;5.80;;;3.03;;
38581;SDS011;24349;53.720;10.014;2022-08-24T06:01:27;6.65;;;2.83;;
38581;SDS011;24349;53.720;10.014;2022-08-24T06:03:53;5.18;;;2.35;;
38581;SDS011;24349;53.720;10.014;2022-08-24T06:06:20;6.82;;;2.55;;
38581;SDS011;24349;53.720;10.014;2022-08-24T06:08:48;6.72;;;2.85;;
38581;SDS011;24349;53.720;10.014;2022-08-24T06:11:25;7.80;;;2.63;;
38581;SDS011;24349;53.720;10.014;2022-08-24T06:13:55;6.70;;;2.80;;
38581;SDS011;24349;53.720;10.014;2022-08-24T06:16:23;6.22;;;2.47;;
38581;SDS011;24349;53.720;10.014;2022-08-24T06:18:50;8.05;;;3.03;;
38581;SDS011;24349;53.720;10.014;2022-08-24T06:21:18;6.30;;;2.75;;
38581;SDS011;24349;53.720;10.014;2022-08-24T06:23:47;5.90;;;2.50;;
38581;SDS011;24349;53.720;10.014;2022-08-24T06:26:13;6.60;;;2.42;;
38581;SDS011;24349;53.720;10.014;2022-08-24T06:28:58;7.90;;;2.95;;
38581;SDS011;24349;53.720;10.014;2022-08-24T06:31:27;5.88;;;2.40;;
38581;SDS011;24349;53.720;10.014;2022-08-24T06:33:53;7.68;;;2.45;;
38581;SDS011;24349;53.720;10.014;2022-08-24T06:36:19;6.82;;;2.70;;
38581;SDS011;24349;53.720;10.014;2022-08-24T06:38:45;6.88;;;2.70;;
38581;SDS011;24349;53.720;10.014;2022-08-24T06:41:12;6.35;;;2.40;;
38581;SDS011;24349;53.720;10.014;2022-08-24T06:43:38;7.10;;;2.60;;
38581;SDS011;24349;53.720;10.014;2022-08-24T06:46:04;7.68;;;2.60;;
38581;SDS011;24349;53.720;10.014;2022-08-24T06:48:30;7.10;;;2.70;;
38581;SDS011;24349;53.720;10.014;2022-08-24T06:50:57;6.72;;;3.08;;
38581;SDS011;24349;53.720;10.014;2022-08-24T06:53:23;7.07;;;3.05;;
38581;SDS011;24349;53.720;10.014;2022-08-24T06:55:50;7.07;;;2.45;;
38581;SDS011;24349;53.720;10.014;2022-08-24T06:58:17;7.72;;;2.42;;
38581;SDS011;24349;53.720;10.014;2022-08-24T07:00:44;5.88;;;2.20;;
38581;SDS011;24349;53.720;10.014;2022-08-24T07:03:10;6.50;;;2.53;;
38581;SDS011;24349;53.720;10.014;2022-08-24T07:05:36;7.25;;;2.83;;
38581;SDS011;24349;53.720;10.014;2022-08-24T07:08:02;5.85;;;2.55;;
38581;SDS011;24349;53.720;10.014;2022-08-24T07:10:28;7.80;;;2.78;;
38581;SDS011;24349;53.720;10.014;2022-08-24T07:12:55;5.22;;;2.13;;
38581;SDS011;24349;53.720;10.014;2022-08-24T07:15:21;4.63;;;2.10;;
38581;SDS011;24349;53.720;10.014;2022-08-24T07:17:47;9.05;;;2.78;;
38581;SDS011;24349;53.720;10.014;2022-08-24T07:20:13;6.20;;;2.40;;
38581;SDS011;24349;53.720;10.014;2022-08-24T07:22:39;6.93;;;2.10;;
38581;SDS011;24349;53.720;10.014;2022-08-24T07:25:04;5.70;;;2.20;;
38581;SDS011;24349;53.720;10.014;2022-08-24T07:27:31;7.90;;;2.50;;
38581;SDS011;24349;53.720;10.014;2022-08-24T07:29:58;7.68;;;2.50;;
38581;SDS011;24349;53.720;10.014;2022-08-24T07:32:24;7.57;;;2.33;;
38581;SDS011;24349;53.720;10.014;2022-08-24T07:34:49;8.20;;;2.70;;
38581;SDS011;24349;53.720;10.014;2022-08-24T07:37:15;6.60;;;2.22;;
38581;SDS011;24349;53.720;10.014;2022-08-24T07:39:41;5.78;;;2.35;;
38581;SDS011;24349;53.720;10.014;2022-08-24T07:42:07;6.90;;;2.22;;
38581;SDS011;24349;53.720;10.014;2022-08-24T07:44:33;5.80;;;2.10;;
38581;SDS011;24349;53.720;10.014;2022-08-24T07:47:00;8.27;;;2.60;;
38581;SDS011;24349;53.720;10.014;2022-08-24T07:49:25;4.97;;;2.17;;
38581;SDS011;24349;53.720;10.014;2022-08-24T07:51:51;6.82;;;2.10;;
38581;SDS011;24349;53.720;10.014;2022-08-24T07:54:18;6.13;;;2.00;;
38581;SDS011;24349;53.720;10.014;2022-08-24T07:56:44;8.68;;;2.33;;
38581;SDS011;24349;53.720;10.014;2022-08-24T07:59:10;6.53;;;2.30;;
38581;SDS011;24349;53.720;10.014;2022-08-24T08:01:36;6.05;;;1.85;;
38581;SDS011;24349;53.720;10.014;2022-08-24T08:04:03;8.52;;;2.40;;
38581;SDS011;24349;53.720;10.014;2022-08-24T08:06:29;7.18;;;2.35;;
38581;SDS011;24349;53.720;10.014;2022-08-24T08:08:55;6.63;;;2.30;;
38581;SDS011;24349;53.720;10.014;2022-08-24T08:11:21;8.43;;;2.40;;
38581;SDS011;24349;53.720;10.014;2022-08-24T08:13:47;5.93;;;2.60;;
38581;SDS011;24349;53.720;10.014;2022-08-24T08:16:13;7.00;;;2.30;;
38581;SDS011;24349;53.720;10.014;2022-08-24T08:18:39;5.40;;;2.72;;
38581;SDS011;24349;53.720;10.014;2022-08-24T08:21:05;4.90;;;2.00;;
38581;SDS011;24349;53.720;10.014;2022-08-24T08:23:51;6.30;;;2.17;;
38581;SDS011;24349;53.720;10.014;2022-08-24T08:26:35;5.18;;;2.22;;
38581;SDS011;24349;53.720;10.014;2022-08-24T08:29:01;6.50;;;2.40;;
38581;SDS011;24349;53.720;10.014;2022-08-24T08:31:27;5.35;;;2.35;;
38581;SDS011;24349;53.720;10.014;2022-08-24T08:33:53;9.23;;;2.70;;
38581;SDS011;24349;53.720;10.014;2022-08-24T08:36:18;5.47;;;2.17;;
38581;SDS011;24349;53.720;10.014;2022-08-24T08:38:46;5.80;;;2.08;;
38581;SDS011;24349;53.720;10.014;2022-08-24T08:46:23;6.20;;;2.65;;
38581;SDS011;24349;53.720;10.014;2022-08-24T08:53:10;5.80;;;2.40;;
38581;SDS011;24349;53.720;10.014;2022-08-24T08:57:55;5.25;;;2.40;;
38581;SDS011;24349;53.720;10.014;2022-08-24T09:00:48;6.55;;;2.63;;
38581;SDS011;24349;53.720;10.014;2022-08-24T09:09:12;5.22;;;2.00;;
38581;SDS011;24349;53.720;10.014;2022-08-24T09:11:42;6.38;;;2.22;;
38581;SDS011;24349;53.720;10.014;2022-08-24T09:14:39;5.45;;;2.70;;
38581;SDS011;24349;53.720;10.014;2022-08-24T09:23:06;7.80;;;2.90;;
38581;SDS011;24349;53.720;10.014;2022-08-24T09:30:31;6.13;;;2.78;;
38581;SDS011;24349;53.720;10.014;2022-08-24T09:38:33;5.88;;;2.40;;
38581;SDS011;24349;53.720;10.014;2022-08-24T09:43:56;5.70;;;2.25;;
38581;SDS011;24349;53.720;10.014;2022-08-24T09:49:37;7.55;;;2.88;;
38581;SDS011;24349;53.720;10.014;2022-08-24T10:04:41;5.65;;;2.20;;
38581;SDS011;24349;53.720;10.014;2022-08-24T10:20:52;5.60;;;2.22;;
38581;SDS011;24349;53.720;10.014;2022-08-24T10:53:36;7.82;;;2.20;;
38581;SDS011;24349;53.720;10.014;2022-08-24T10:56:03;8.25;;;2.53;;
38581;SDS011;24349;53.720;10.014;2022-08-24T11:00:58;5.40;;;1.83;;
38581;SDS011;24349;53.720;10.014;2022-08-24T11:03:46;7.13;;;2.40;;
38581;SDS011;24349;53.720;10.014;2022-08-24T11:06:15;6.63;;;2.25;;
38581;SDS011;24349;53.720;10.014;2022-08-24T11:09:03;10.50;;;2.25;;
38581;SDS011;24349;53.720;10.014;2022-08-24T11:11:33;5.00;;;2.20;;
38581;SDS011;24349;53.720;10.014;2022-08-24T11:16:46;5.30;;;1.98;;
38581;SDS011;24349;53.720;10.014;2022-08-24T11:19:13;6.05;;;2.10;;
38581;SDS011;24349;53.720;10.014;2022-08-24T11:22:04;6.43;;;2.08;;
38581;SDS011;24349;53.720;10.014;2022-08-24T11:24:45;5.22;;;1.90;;
38581;SDS011;24349;53.720;10.014;2022-08-24T11:35:08;5.57;;;1.80;;
38581;SDS011;24349;53.720;10.014;2022-08-24T11:37:42;4.90;;;1.83;;
38581;SDS011;24349;53.720;10.014;2022-08-24T11:40:09;5.13;;;2.00;;
38581;SDS011;24349;53.720;10.014;2022-08-24T11:48:07;4.40;;;1.80;;
38581;SDS011;24349;53.720;10.014;2022-08-24T11:53:38;4.05;;;1.65;;
38581;SDS011;24349;53.720;10.014;2022-08-24T11:58:55;5.20;;;1.80;;
38581;SDS011;24349;53.720;10.014;2022-08-24T12:01:38;4.47;;;1.67;;
38581;SDS011;24349;53.720;10.014;2022-08-24T12:04:18;4.47;;;2.00;;
38581;SDS011;24349;53.720;10.014;2022-08-24T12:09:43;5.65;;;2.47;;
38581;SDS011;24349;53.720;10.014;2022-08-24T12:12:28;4.82;;;2.03;;
38581;SDS011;24349;53.720;10.014;2022-08-24T12:15:06;9.45;;;2.53;;
38581;SDS011;24349;53.720;10.014;2022-08-24T12:20:26;6.80;;;1.90;;
38581;SDS011;24349;53.720;10.014;2022-08-24T12:22:58;4.70;;;1.80;;
38581;SDS011;24349;53.720;10.014;2022-08-24T12:25:28;4.57;;;1.80;;
38581;SDS011;24349;53.720;10.014;2022-08-24T12:28:18;5.80;;;1.90;;
38581;SDS011;24349;53.720;10.014;2022-08-24T12:30:52;6.15;;;1.60;;
38581;SDS011;24349;53.720;10.014;2022-08-24T12:33:24;5.82;;;2.25;;
38581;SDS011;24349;53.720;10.014;2022-08-24T12:35:57;4.95;;;1.90;;
38581;SDS011;24349;53.720;10.014;2022-08-24T12:38:37;5.63;;;1.83;;
38581;SDS011;24349;53.720;10.014;2022-08-24T12:43:52;3.72;;;1.60;;
38581;SDS011;24349;53.720;10.014;2022-08-24T12:46:24;4.30;;;1.80;;
38581;SDS011;24349;53.720;10.014;2022-08-24T12:48:52;4.60;;;1.67;;
38581;SDS011;24349;53.720;10.014;2022-08-24T12:51:41;6.18;;;2.00;;
38581;SDS011;24349;53.720;10.014;2022-08-24T12:54:26;3.55;;;1.60;;
38581;SDS011;24349;53.720;10.014;2022-08-24T13:00:16;4.75;;;1.80;;
38581;SDS011;24349;53.720;10.014;2022-08-24T13:03:22;4.10;;;1.70;;
38581;SDS011;24349;53.720;10.014;2022-08-24T13:05:57;6.78;;;1.90;;
38581;SDS011;24349;53.720;10.014;2022-08-24T13:08:39;5.13;;;2.00;;
38581;SDS011;24349;53.720;10.014;2022-08-24T13:11:06;9.30;;;2.20;;
38581;SDS011;24349;53.720;10.014;2022-08-24T13:21:49;5.65;;;1.90;;
38581;SDS011;24349;53.720;10.014;2022-08-24T13:26:55;5.25;;;1.98;;
38581;SDS011;24349;53.720;10.014;2022-08-24T13:29:23;4.47;;;1.70;;
38581;SDS011;24349;53.720;10.014;2022-08-24T13:39:52;4.50;;;1.70;;
38581;SDS011;24349;53.720;10.014;2022-08-24T13:48:01;3.80;;;1.52;;
38581;SDS011;24349;53.720;10.014;2022-08-24T13:56:23;4.82;;;1.85;;
38581;SDS011;24349;53.720;10.014;2022-08-24T14:01:50;7.22;;;2.10;;
38581;SDS011;24349;53.720;10.014;2022-08-24T14:04:41;6.07;;;2.38;;
38581;SDS011;24349;53.720;10.014;2022-08-24T14:13:34;5.97;;;2.00;;
38581;SDS011;24349;53.720;10.014;2022-08-24T14:35:35;5.00;;;2.10;;
38581;SDS011;24349;53.720;10.014;2022-08-24T14:49:23;5.63;;;1.85;;
38581;SDS011;24349;53.720;10.014;2022-08-24T14:52:10;5.93;;;1.80;;
38581;SDS011;24349;53.720;10.014;2022-08-24T15:00:17;3.92;;;1.63;;
38581;SDS011;24349;53.720;10.014;2022-08-24T15:10:23;5.32;;;1.80;;
38581;SDS011;24349;53.720;10.014;2022-08-24T15:17:58;4.50;;;1.70;;
38581;SDS011;24349;53.720;10.014;2022-08-24T15:23:46;4.60;;;1.98;;
38581;SDS011;24349;53.720;10.014;2022-08-24T15:26:28;5.15;;;2.28;;
38581;SDS011;24349;53.720;10.014;2022-08-24T15:29:13;5.68;;;2.10;;
38581;SDS011;24349;53.720;10.014;2022-08-24T15:31:42;4.53;;;1.90;;
38581;SDS011;24349;53.720;10.014;2022-08-24T15:34:31;5.70;;;1.83;;
38581;SDS011;24349;53.720;10.014;2022-08-24T15:37:00;4.10;;;1.80;;
38581;SDS011;24349;53.720;10.014;2022-08-24T15:39:26;4.80;;;1.83;;
38581;SDS011;24349;53.720;10.014;2022-08-24T15:41:52;5.68;;;1.90;;
38581;SDS011;24349;53.720;10.014;2022-08-24T15:44:20;5.30;;;1.92;;
38581;SDS011;24349;53.720;10.014;2022-08-24T15:46:50;4.60;;;1.70;;
38581;SDS011;24349;53.720;10.014;2022-08-24T15:49:21;5.22;;;1.63;;
38581;SDS011;24349;53.720;10.014;2022-08-24T15:51:55;5.82;;;2.10;;
38581;SDS011;24349;53.720;10.014;2022-08-24T15:54:44;5.40;;;1.73;;
38581;SDS011;24349;53.720;10.014;2022-08-24T15:57:40;5.20;;;1.73;;
38581;SDS011;24349;53.720;10.014;2022-08-24T16:00:13;4.22;;;1.83;;
38581;SDS011;24349;53.720;10.014;2022-08-24T16:05:48;5.60;;;1.80;;
38581;SDS011;24349;53.720;10.014;2022-08-24T16:08:15;3.70;;;1.80;;
38581;SDS011;24349;53.720;10.014;2022-08-24T16:10:45;3.60;;;1.67;;
38581;SDS011;24349;53.720;10.014;2022-08-24T16:21:13;4.90;;;1.70;;
38581;SDS011;24349;53.720;10.014;2022-08-24T16:23:43;3.72;;;1.60;;
38581;SDS011;24349;53.720;10.014;2022-08-24T16:26:18;5.93;;;1.80;;
38581;SDS011;24349;53.720;10.014;2022-08-24T16:28:47;4.28;;;1.50;;
38581;SDS011;24349;53.720;10.014;2022-08-24T16:31:41;4.15;;;1.85;;
38581;SDS011;24349;53.720;10.014;2022-08-24T16:34:27;5.75;;;1.77;;
38581;SDS011;24349;53.720;10.014;2022-08-24T16:36:54;5.80;;;2.28;;
38581;SDS011;24349;53.720;10.014;2022-08-24T16:39:20;3.88;;;1.60;;
38581;SDS011;24349;53.720;10.014;2022-08-24T16:41:46;5.97;;;2.17;;
38581;SDS011;24349;53.720;10.014;2022-08-24T16:44:14;4.40;;;1.80;;
38581;SDS011;24349;53.720;10.014;2022-08-24T16:46:39;4.75;;;1.88;;
38581;SDS011;24349;53.720;10.014;2022-08-24T16:49:05;4.38;;;2.08;;
38581;SDS011;24349;53.720;10.014;2022-08-24T16:51:31;5.43;;;1.80;;
38581;SDS011;24349;53.720;10.014;2022-08-24T16:53:57;4.82;;;1.88;;
38581;SDS011;24349;53.720;10.014;2022-08-24T16:56:24;4.20;;;1.77;;
38581;SDS011;24349;53.720;10.014;2022-08-24T16:58:50;3.97;;;1.90;;
38581;SDS011;24349;53.720;10.014;2022-08-24T17:01:16;5.25;;;1.67;;
38581;SDS011;24349;53.720;10.014;2022-08-24T17:03:42;4.53;;;1.83;;
38581;SDS011;24349;53.720;10.014;2022-08-24T17:06:08;4.75;;;1.90;;
38581;SDS011;24349;53.720;10.014;2022-08-24T17:08:37;4.35;;;2.00;;
38581;SDS011;24349;53.720;10.014;2022-08-24T17:11:03;4.65;;;1.90;;
38581;SDS011;24349;53.720;10.014;2022-08-24T17:13:30;5.22;;;2.30;;
38581;SDS011;24349;53.720;10.014;2022-08-24T17:15:56;4.07;;;1.90;;
38581;SDS011;24349;53.720;10.014;2022-08-24T17:18:23;5.57;;;1.85;;
38581;SDS011;24349;53.720;10.014;2022-08-24T17:20:50;6.35;;;2.00;;
38581;SDS011;24349;53.720;10.014;2022-08-24T17:23:15;6.15;;;2.30;;
38581;SDS011;24349;53.720;10.014;2022-08-24T17:25:41;5.65;;;2.28;;
38581;SDS011;24349;53.720;10.014;2022-08-24T17:28:12;7.75;;;2.10;;
38581;SDS011;24349;53.720;10.014;2022-08-24T17:30:42;6.88;;;2.03;;
38581;SDS011;24349;53.720;10.014;2022-08-24T17:33:08;5.88;;;2.10;;
38581;SDS011;24349;53.720;10.014;2022-08-24T17:35:36;5.35;;;2.53;;
38581;SDS011;24349;53.720;10.014;2022-08-24T17:38:02;6.72;;;2.38;;
38581;SDS011;24349;53.720;10.014;2022-08-24T17:40:28;7.68;;;1.88;;
38581;SDS011;24349;53.720;10.014;2022-08-24T17:42:55;7.50;;;2.13;;
38581;SDS011;24349;53.720;10.014;2022-08-24T17:45:22;6.13;;;2.30;;
38581;SDS011;24349;53.720;10.014;2022-08-24T17:47:48;7.18;;;2.30;;
38581;SDS011;24349;53.720;10.014;2022-08-24T17:50:14;8.15;;;2.30;;
38581;SDS011;24349;53.720;10.014;2022-08-24T17:52:41;8.00;;;2.70;;
38581;SDS011;24349;53.720;10.014;2022-08-24T17:55:07;7.85;;;2.42;;
38581;SDS011;24349;53.720;10.014;2022-08-24T17:57:34;5.38;;;1.90;;
38581;SDS011;24349;53.720;10.014;2022-08-24T18:00:01;7.18;;;2.28;;
38581;SDS011;24349;53.720;10.014;2022-08-24T18:02:29;7.50;;;2.20;;
38581;SDS011;24349;53.720;10.014;2022-08-24T18:04:55;6.18;;;2.25;;
38581;SDS011;24349;53.720;10.014;2022-08-24T18:07:21;7.15;;;2.47;;
38581;SDS011;24349;53.720;10.014;2022-08-24T18:09:51;7.32;;;2.33;;
38581;SDS011;24349;53.720;10.014;2022-08-24T18:12:19;6.75;;;2.10;;
38581;SDS011;24349;53.720;10.014;2022-08-24T18:14:47;6.75;;;2.22;;
38581;SDS011;24349;53.720;10.014;2022-08-24T18:17:14;7.25;;;2.08;;
38581;SDS011;24349;53.720;10.014;2022-08-24T18:19:43;7.80;;;2.50;;
38581;SDS011;24349;53.720;10.014;2022-08-24T18:22:10;6.35;;;2.03;;
38581;SDS011;24349;53.720;10.014;2022-08-24T18:24:36;4.85;;;2.35;;
38581;SDS011;24349;53.720;10.014;2022-08-24T18:27:03;6.32;;;2.10;;
38581;SDS011;24349;53.720;10.014;2022-08-24T18:29:32;5.57;;;2.05;;
38581;SDS011;24349;53.720;10.014;2022-08-24T18:31:58;5.72;;;2.10;;
38581;SDS011;24349;53.720;10.014;2022-08-24T18:34:25;7.15;;;2.25;;
38581;SDS011;24349;53.720;10.014;2022-08-24T18:36:51;7.45;;;2.28;;
38581;SDS011;24349;53.720;10.014;2022-08-24T18:39:17;7.10;;;2.42;;
38581;SDS011;24349;53.720;10.014;2022-08-24T18:41:44;5.55;;;2.40;;
38581;SDS011;24349;53.720;10.014;2022-08-24T18:44:10;8.05;;;2.30;;
38581;SDS011;24349;53.720;10.014;2022-08-24T18:46:39;6.95;;;2.20;;